sensor_id;sensor_type;location;lat;lon;timestamp;temperature;humidity
9975;DHT22;5028;50.974;4.968;2023-03-11T00:01:34;0.60;99.90
9975;DHT22;5028;50.974;4.968;2023-03-11T00:04:13;0.60;99.90
9975;DHT22;5028;50.974;4.968;2023-03-11T00:06:41;0.60;99.90
9975;DHT22;5028;50.974;4.968;2023-03-11T00:09:16;0.60;99.90
9975;DHT22;5028;50.974;4.968;2023-03-11T00:11:59;0.60;99.90
9975;DHT22;5028;50.974;4.968;2023-03-11T00:14:35;0.60;99.90
9975;DHT22;5028;50.974;4.968;2023-03-11T00:17:03;0.60;99.90
9975;DHT22;5028;50.974;4.968;2023-03-11T00:19:38;0.60;99.90
9975;DHT22;5028;50.974;4.968;2023-03-11T00:22:06;0.60;99.90
9975;DHT22;5028;50.974;4.968;2023-03-11T00:24:42;0.60;99.90
9975;DHT22;5028;50.974;4.968;2023-03-11T00:27:11;0.60;99.90
9975;DHT22;5028;50.974;4.968;2023-03-11T00:29:47;0.60;99.90
9975;DHT22;5028;50.974;4.968;2023-03-11T00:32:15;0.60;99.90
9975;DHT22;5028;50.974;4.968;2023-03-11T00:34:51;0.60;99.90
9975;DHT22;5028;50.974;4.968;2023-03-11T00:37:20;0.60;99.90
9975;DHT22;5028;50.974;4.968;2023-03-11T00:39:55;0.70;99.90
9975;DHT22;5028;50.974;4.968;2023-03-11T00:42:24;0.70;99.90
9975;DHT22;5028;50.974;4.968;2023-03-11T00:45:00;0.70;99.90
9975;DHT22;5028;50.974;4.968;2023-03-11T00:47:28;0.70;99.90
9975;DHT22;5028;50.974;4.968;2023-03-11T00:50:03;0.70;99.90
9975;DHT22;5028;50.974;4.968;2023-03-11T00:52:32;0.80;99.90
9975;DHT22;5028;50.974;4.968;2023-03-11T00:55:08;0.70;99.90
9975;DHT22;5028;50.974;4.968;2023-03-11T00:57:38;0.70;99.90
9975;DHT22;5028;50.974;4.968;2023-03-11T01:00:15;0.70;99.90
9975;DHT22;5028;50.974;4.968;2023-03-11T01:02:44;0.70;99.90
9975;DHT22;5028;50.974;4.968;2023-03-11T01:05:22;0.70;99.90
9975;DHT22;5028;50.974;4.968;2023-03-11T01:07:51;0.70;99.90
9975;DHT22;5028;50.974;4.968;2023-03-11T01:10:26;0.70;99.90
9975;DHT22;5028;50.974;4.968;2023-03-11T01:13:03;0.80;99.90
9975;DHT22;5028;50.974;4.968;2023-03-11T01:15:38;0.70;99.90
9975;DHT22;5028;50.974;4.968;2023-03-11T01:18:07;0.70;99.90
9975;DHT22;5028;50.974;4.968;2023-03-11T01:20:42;0.70;99.90
9975;DHT22;5028;50.974;4.968;2023-03-11T01:23:11;0.70;99.90
9975;DHT22;5028;50.974;4.968;2023-03-11T01:25:47;0.70;99.90
9975;DHT22;5028;50.974;4.968;2023-03-11T01:28:17;0.70;99.90
9975;DHT22;5028;50.974;4.968;2023-03-11T01:30:52;0.70;99.90
9975;DHT22;5028;50.974;4.968;2023-03-11T01:33:20;0.70;99.90
9975;DHT22;5028;50.974;4.968;2023-03-11T01:35:56;0.70;99.90
9975;DHT22;5028;50.974;4.968;2023-03-11T01:38:24;0.70;99.90
9975;DHT22;5028;50.974;4.968;2023-03-11T01:41:00;0.70;99.90
9975;DHT22;5028;50.974;4.968;2023-03-11T01:43:51;0.80;99.90
9975;DHT22;5028;50.974;4.968;2023-03-11T01:46:31;0.80;99.90
9975;DHT22;5028;50.974;4.968;2023-03-11T01:49:02;0.80;99.90
9975;DHT22;5028;50.974;4.968;2023-03-11T01:51:39;0.80;99.90
9975;DHT22;5028;50.974;4.968;2023-03-11T01:54:11;0.80;99.90
9975;DHT22;5028;50.974;4.968;2023-03-11T01:56:48;0.80;99.90
9975;DHT22;5028;50.974;4.968;2023-03-11T01:59:21;0.80;99.90
9975;DHT22;5028;50.974;4.968;2023-03-11T02:02:08;0.80;99.90
9975;DHT22;5028;50.974;4.968;2023-03-11T02:04:39;0.80;99.90
9975;DHT22;5028;50.974;4.968;2023-03-11T02:07:15;0.90;99.90
9975;DHT22;5028;50.974;4.968;2023-03-11T02:09:44;0.80;99.90
9975;DHT22;5028;50.974;4.968;2023-03-11T02:12:19;0.80;99.90
9975;DHT22;5028;50.974;4.968;2023-03-11T02:14:51;0.90;99.90
9975;DHT22;5028;50.974;4.968;2023-03-11T02:17:27;0.90;99.90
9975;DHT22;5028;50.974;4.968;2023-03-11T02:20:04;0.70;99.90
9975;DHT22;5028;50.974;4.968;2023-03-11T02:22:44;0.70;99.90
9975;DHT22;5028;50.974;4.968;2023-03-11T02:25:20;0.70;99.90
9975;DHT22;5028;50.974;4.968;2023-03-11T02:28:00;0.70;99.90
9975;DHT22;5028;50.974;4.968;2023-03-11T02:30:31;0.70;99.90
9975;DHT22;5028;50.974;4.968;2023-03-11T02:33:08;0.80;99.90
9975;DHT22;5028;50.974;4.968;2023-03-11T02:35:37;0.80;99.90
9975;DHT22;5028;50.974;4.968;2023-03-11T02:38:12;0.80;99.90
9975;DHT22;5028;50.974;4.968;2023-03-11T02:40:47;0.80;99.90
9975;DHT22;5028;50.974;4.968;2023-03-11T02:43:30;0.80;99.90
9975;DHT22;5028;50.974;4.968;2023-03-11T02:46:01;0.90;99.90
9975;DHT22;5028;50.974;4.968;2023-03-11T02:48:37;0.90;99.90
9975;DHT22;5028;50.974;4.968;2023-03-11T02:51:06;0.80;99.90
9975;DHT22;5028;50.974;4.968;2023-03-11T02:53:45;0.80;99.90
9975;DHT22;5028;50.974;4.968;2023-03-11T02:56:14;0.90;99.90
9975;DHT22;5028;50.974;4.968;2023-03-11T02:58:51;0.80;99.90
9975;DHT22;5028;50.974;4.968;2023-03-11T03:01:20;0.80;99.90
9975;DHT22;5028;50.974;4.968;2023-03-11T03:03:56;0.90;99.90
9975;DHT22;5028;50.974;4.968;2023-03-11T03:06:32;0.90;99.90
9975;DHT22;5028;50.974;4.968;2023-03-11T03:09:07;0.80;99.90
9975;DHT22;5028;50.974;4.968;2023-03-11T03:11:35;0.90;99.90
9975;DHT22;5028;50.974;4.968;2023-03-11T03:14:11;0.90;99.90
9975;DHT22;5028;50.974;4.968;2023-03-11T03:16:46;0.80;99.90
9975;DHT22;5028;50.974;4.968;2023-03-11T03:19:15;1.00;99.90
9975;DHT22;5028;50.974;4.968;2023-03-11T03:21:50;0.80;99.90
9975;DHT22;5028;50.974;4.968;2023-03-11T03:24:19;0.80;99.90
9975;DHT22;5028;50.974;4.968;2023-03-11T03:26:54;0.80;99.90
9975;DHT22;5028;50.974;4.968;2023-03-11T03:29:24;0.80;99.90
9975;DHT22;5028;50.974;4.968;2023-03-11T03:31:59;0.80;99.90
9975;DHT22;5028;50.974;4.968;2023-03-11T03:34:27;0.80;99.90
9975;DHT22;5028;50.974;4.968;2023-03-11T03:37:03;0.70;99.90
9975;DHT22;5028;50.974;4.968;2023-03-11T03:39:32;0.70;99.90
9975;DHT22;5028;50.974;4.968;2023-03-11T03:42:07;1.00;99.90
9975;DHT22;5028;50.974;4.968;2023-03-11T03:44:37;0.80;99.90
9975;DHT22;5028;50.974;4.968;2023-03-11T03:47:12;0.70;99.90
9975;DHT22;5028;50.974;4.968;2023-03-11T03:49:41;0.70;99.90
9975;DHT22;5028;50.974;4.968;2023-03-11T03:52:16;0.70;99.90
9975;DHT22;5028;50.974;4.968;2023-03-11T03:54:45;0.70;99.90
9975;DHT22;5028;50.974;4.968;2023-03-11T03:57:20;0.70;99.90
9975;DHT22;5028;50.974;4.968;2023-03-11T03:59:50;0.70;99.90
9975;DHT22;5028;50.974;4.968;2023-03-11T04:02:31;0.70;99.90
9975;DHT22;5028;50.974;4.968;2023-03-11T04:05:13;0.60;99.90
9975;DHT22;5028;50.974;4.968;2023-03-11T04:07:48;0.60;99.90
9975;DHT22;5028;50.974;4.968;2023-03-11T04:10:16;0.60;99.90
9975;DHT22;5028;50.974;4.968;2023-03-11T04:12:52;0.60;99.90
9975;DHT22;5028;50.974;4.968;2023-03-11T04:15:22;0.60;99.90
9975;DHT22;5028;50.974;4.968;2023-03-11T04:17:58;0.60;99.90
9975;DHT22;5028;50.974;4.968;2023-03-11T04:20:26;0.60;99.90
9975;DHT22;5028;50.974;4.968;2023-03-11T04:23:02;0.50;99.90
9975;DHT22;5028;50.974;4.968;2023-03-11T04:25:30;0.50;99.90
9975;DHT22;5028;50.974;4.968;2023-03-11T04:28:06;0.50;99.90
9975;DHT22;5028;50.974;4.968;2023-03-11T04:30:38;0.50;99.90
9975;DHT22;5028;50.974;4.968;2023-03-11T04:33:13;0.40;99.90
9975;DHT22;5028;50.974;4.968;2023-03-11T04:35:42;0.40;99.90
9975;DHT22;5028;50.974;4.968;2023-03-11T04:38:17;0.40;99.90
9975;DHT22;5028;50.974;4.968;2023-03-11T04:40:46;0.40;99.90
9975;DHT22;5028;50.974;4.968;2023-03-11T04:43:21;0.30;99.90
9975;DHT22;5028;50.974;4.968;2023-03-11T04:45:51;0.40;99.90
9975;DHT22;5028;50.974;4.968;2023-03-11T04:48:26;0.20;99.90
9975;DHT22;5028;50.974;4.968;2023-03-11T04:50:54;0.20;99.90
9975;DHT22;5028;50.974;4.968;2023-03-11T04:53:30;0.40;99.90
9975;DHT22;5028;50.974;4.968;2023-03-11T04:55:58;0.10;99.90
9975;DHT22;5028;50.974;4.968;2023-03-11T04:58:33;0.30;99.90
9975;DHT22;5028;50.974;4.968;2023-03-11T05:01:03;0.10;99.90
9975;DHT22;5028;50.974;4.968;2023-03-11T05:03:46;0.00;99.90
9975;DHT22;5028;50.974;4.968;2023-03-11T05:06:14;0.00;99.90
9975;DHT22;5028;50.974;4.968;2023-03-11T05:08:50;0.00;99.90
9975;DHT22;5028;50.974;4.968;2023-03-11T05:11:18;0.00;99.90
9975;DHT22;5028;50.974;4.968;2023-03-11T05:13:53;0.00;99.90
9975;DHT22;5028;50.974;4.968;2023-03-11T05:16:23;0.00;99.90
9975;DHT22;5028;50.974;4.968;2023-03-11T05:18:58;0.00;99.90
9975;DHT22;5028;50.974;4.968;2023-03-11T05:21:27;-0.10;99.90
9975;DHT22;5028;50.974;4.968;2023-03-11T05:24:02;-0.10;99.90
9975;DHT22;5028;50.974;4.968;2023-03-11T05:26:31;-0.10;99.90
9975;DHT22;5028;50.974;4.968;2023-03-11T05:29:07;-0.10;99.90
9975;DHT22;5028;50.974;4.968;2023-03-11T05:31:37;-0.10;99.90
9975;DHT22;5028;50.974;4.968;2023-03-11T05:34:12;0.00;99.90
9975;DHT22;5028;50.974;4.968;2023-03-11T05:36:41;-0.20;99.90
9975;DHT22;5028;50.974;4.968;2023-03-11T05:39:16;-0.20;99.90
9975;DHT22;5028;50.974;4.968;2023-03-11T05:41:45;-0.20;99.90
9975;DHT22;5028;50.974;4.968;2023-03-11T05:44:20;-0.20;99.90
9975;DHT22;5028;50.974;4.968;2023-03-11T05:46:50;-0.30;99.90
9975;DHT22;5028;50.974;4.968;2023-03-11T05:49:25;0.00;99.90
9975;DHT22;5028;50.974;4.968;2023-03-11T05:51:55;-0.20;99.90
9975;DHT22;5028;50.974;4.968;2023-03-11T05:54:30;-0.30;99.90
9975;DHT22;5028;50.974;4.968;2023-03-11T05:56:59;-0.30;99.90
9975;DHT22;5028;50.974;4.968;2023-03-11T05:59:34;-0.30;99.90
9975;DHT22;5028;50.974;4.968;2023-03-11T06:02:05;-0.30;99.90
9975;DHT22;5028;50.974;4.968;2023-03-11T06:04:40;-0.10;99.90
9975;DHT22;5028;50.974;4.968;2023-03-11T06:07:16;-0.30;99.90
9975;DHT22;5028;50.974;4.968;2023-03-11T06:09:51;-0.20;99.90
9975;DHT22;5028;50.974;4.968;2023-03-11T06:12:20;-0.30;99.90
9975;DHT22;5028;50.974;4.968;2023-03-11T06:14:55;-0.30;99.90
9975;DHT22;5028;50.974;4.968;2023-03-11T06:17:25;-0.30;99.90
9975;DHT22;5028;50.974;4.968;2023-03-11T06:20:00;-0.30;99.90
9975;DHT22;5028;50.974;4.968;2023-03-11T06:22:30;-0.10;99.90
9975;DHT22;5028;50.974;4.968;2023-03-11T06:25:06;-0.30;99.90
9975;DHT22;5028;50.974;4.968;2023-03-11T06:27:35;-0.30;99.90
9975;DHT22;5028;50.974;4.968;2023-03-11T06:30:11;-0.30;99.90
9975;DHT22;5028;50.974;4.968;2023-03-11T06:32:42;-0.30;99.90
9975;DHT22;5028;50.974;4.968;2023-03-11T06:35:17;-0.30;99.90
9975;DHT22;5028;50.974;4.968;2023-03-11T06:37:46;0.00;99.90
9975;DHT22;5028;50.974;4.968;2023-03-11T06:40:21;-0.30;99.90
9975;DHT22;5028;50.974;4.968;2023-03-11T06:42:50;-0.30;99.90
9975;DHT22;5028;50.974;4.968;2023-03-11T06:45:25;-0.30;99.90
9975;DHT22;5028;50.974;4.968;2023-03-11T06:47:55;-0.30;99.90
9975;DHT22;5028;50.974;4.968;2023-03-11T06:50:30;-0.20;99.90
9975;DHT22;5028;50.974;4.968;2023-03-11T06:52:58;-0.30;99.90
9975;DHT22;5028;50.974;4.968;2023-03-11T06:55:35;-0.20;99.90
9975;DHT22;5028;50.974;4.968;2023-03-11T06:58:04;0.00;99.90
9975;DHT22;5028;50.974;4.968;2023-03-11T07:00:39;-0.20;99.90
9975;DHT22;5028;50.974;4.968;2023-03-11T07:03:16;-0.20;99.90
9975;DHT22;5028;50.974;4.968;2023-03-11T07:05:52;-0.20;99.90
9975;DHT22;5028;50.974;4.968;2023-03-11T07:08:28;-0.10;99.90
9975;DHT22;5028;50.974;4.968;2023-03-11T07:11:05;-0.10;99.90
9975;DHT22;5028;50.974;4.968;2023-03-11T07:13:35;0.00;99.90
9975;DHT22;5028;50.974;4.968;2023-03-11T07:16:11;0.00;99.90
9975;DHT22;5028;50.974;4.968;2023-03-11T07:18:45;0.10;99.90
9975;DHT22;5028;50.974;4.968;2023-03-11T07:21:22;0.10;99.90
9975;DHT22;5028;50.974;4.968;2023-03-11T07:23:52;0.10;99.90
9975;DHT22;5028;50.974;4.968;2023-03-11T07:26:29;0.20;99.90
9975;DHT22;5028;50.974;4.968;2023-03-11T07:28:58;0.30;99.90
9975;DHT22;5028;50.974;4.968;2023-03-11T07:31:35;0.30;99.90
9975;DHT22;5028;50.974;4.968;2023-03-11T07:34:06;0.30;99.90
9975;DHT22;5028;50.974;4.968;2023-03-11T07:36:44;0.40;99.90
9975;DHT22;5028;50.974;4.968;2023-03-11T07:39:15;0.40;99.90
9975;DHT22;5028;50.974;4.968;2023-03-11T07:41:50;0.50;99.90
9975;DHT22;5028;50.974;4.968;2023-03-11T07:44:19;0.60;99.90
9975;DHT22;5028;50.974;4.968;2023-03-11T07:46:54;0.60;99.90
9975;DHT22;5028;50.974;4.968;2023-03-11T07:49:24;0.70;99.90
9975;DHT22;5028;50.974;4.968;2023-03-11T07:51:59;1.00;99.90
9975;DHT22;5028;50.974;4.968;2023-03-11T07:54:28;0.80;99.90
9975;DHT22;5028;50.974;4.968;2023-03-11T07:57:03;0.90;99.90
9975;DHT22;5028;50.974;4.968;2023-03-11T07:59:33;0.90;99.90
9975;DHT22;5028;50.974;4.968;2023-03-11T08:02:08;1.00;99.90
9975;DHT22;5028;50.974;4.968;2023-03-11T08:04:45;1.00;99.90
9975;DHT22;5028;50.974;4.968;2023-03-11T08:07:20;1.10;99.90
9975;DHT22;5028;50.974;4.968;2023-03-11T08:09:49;1.10;99.90
9975;DHT22;5028;50.974;4.968;2023-03-11T08:12:24;1.20;99.90
9975;DHT22;5028;50.974;4.968;2023-03-11T08:14:53;1.50;99.90
9975;DHT22;5028;50.974;4.968;2023-03-11T08:17:28;1.30;99.90
9975;DHT22;5028;50.974;4.968;2023-03-11T08:19:59;1.30;99.90
9975;DHT22;5028;50.974;4.968;2023-03-11T08:22:34;1.40;99.90
9975;DHT22;5028;50.974;4.968;2023-03-11T08:25:14;1.50;99.90
9975;DHT22;5028;50.974;4.968;2023-03-11T08:27:50;1.50;99.90
9975;DHT22;5028;50.974;4.968;2023-03-11T08:30:19;1.60;99.90
9975;DHT22;5028;50.974;4.968;2023-03-11T08:32:55;1.60;99.90
9975;DHT22;5028;50.974;4.968;2023-03-11T08:35:25;1.70;99.90
9975;DHT22;5028;50.974;4.968;2023-03-11T08:38:00;1.80;99.90
9975;DHT22;5028;50.974;4.968;2023-03-11T08:40:29;1.80;99.90
9975;DHT22;5028;50.974;4.968;2023-03-11T08:43:04;1.80;99.90
9975;DHT22;5028;50.974;4.968;2023-03-11T08:45:33;1.90;99.90
9975;DHT22;5028;50.974;4.968;2023-03-11T08:48:10;1.90;99.90
9975;DHT22;5028;50.974;4.968;2023-03-11T08:50:43;1.90;99.90
9975;DHT22;5028;50.974;4.968;2023-03-11T08:53:20;2.00;99.90
9975;DHT22;5028;50.974;4.968;2023-03-11T08:55:49;2.00;99.90
9975;DHT22;5028;50.974;4.968;2023-03-11T08:58:24;2.10;99.90
9975;DHT22;5028;50.974;4.968;2023-03-11T09:00:53;2.10;99.90
9975;DHT22;5028;50.974;4.968;2023-03-11T09:03:30;2.20;99.90
9975;DHT22;5028;50.974;4.968;2023-03-11T09:06:15;2.20;99.90
9975;DHT22;5028;50.974;4.968;2023-03-11T09:08:51;2.30;99.90
9975;DHT22;5028;50.974;4.968;2023-03-11T09:11:20;2.40;99.90
9975;DHT22;5028;50.974;4.968;2023-03-11T09:13:55;2.50;99.90
9975;DHT22;5028;50.974;4.968;2023-03-11T09:16:24;2.60;99.90
9975;DHT22;5028;50.974;4.968;2023-03-11T09:18:59;2.60;99.90
9975;DHT22;5028;50.974;4.968;2023-03-11T09:21:34;2.60;99.90
9975;DHT22;5028;50.974;4.968;2023-03-11T09:24:09;2.70;99.90
9975;DHT22;5028;50.974;4.968;2023-03-11T09:26:49;2.70;99.90
9975;DHT22;5028;50.974;4.968;2023-03-11T09:29:24;2.90;99.90
9975;DHT22;5028;50.974;4.968;2023-03-11T09:31:54;3.00;99.90
9975;DHT22;5028;50.974;4.968;2023-03-11T09:34:29;3.10;99.90
9975;DHT22;5028;50.974;4.968;2023-03-11T09:37:00;3.20;99.90
9975;DHT22;5028;50.974;4.968;2023-03-11T09:39:35;3.30;99.90
9975;DHT22;5028;50.974;4.968;2023-03-11T09:42:12;3.40;99.90
9975;DHT22;5028;50.974;4.968;2023-03-11T09:44:55;3.40;99.90
9975;DHT22;5028;50.974;4.968;2023-03-11T09:47:36;3.50;99.90
9975;DHT22;5028;50.974;4.968;2023-03-11T09:50:14;3.60;99.90
9975;DHT22;5028;50.974;4.968;2023-03-11T09:53:14;3.80;99.90
9975;DHT22;5028;50.974;4.968;2023-03-11T09:55:48;4.00;99.90
9975;DHT22;5028;50.974;4.968;2023-03-11T09:58:34;4.10;99.90
9975;DHT22;5028;50.974;4.968;2023-03-11T10:01:11;4.30;99.90
9975;DHT22;5028;50.974;4.968;2023-03-11T10:03:49;4.60;99.90
9975;DHT22;5028;50.974;4.968;2023-03-11T10:06:31;4.70;99.90
9975;DHT22;5028;50.974;4.968;2023-03-11T10:09:25;4.90;99.90
9975;DHT22;5028;50.974;4.968;2023-03-11T10:12:12;5.20;99.90
9975;DHT22;5028;50.974;4.968;2023-03-11T10:15:12;5.50;99.90
9975;DHT22;5028;50.974;4.968;2023-03-11T10:18:00;5.60;99.90
9975;DHT22;5028;50.974;4.968;2023-03-11T10:20:43;5.90;99.90
9975;DHT22;5028;50.974;4.968;2023-03-11T10:23:21;6.30;99.90
9975;DHT22;5028;50.974;4.968;2023-03-11T10:26:09;6.40;99.90
9975;DHT22;5028;50.974;4.968;2023-03-11T10:28:43;6.30;99.90
9975;DHT22;5028;50.974;4.968;2023-03-11T10:31:24;6.30;99.90
9975;DHT22;5028;50.974;4.968;2023-03-11T10:33:56;6.10;99.90
9975;DHT22;5028;50.974;4.968;2023-03-11T10:36:38;6.00;99.90
9975;DHT22;5028;50.974;4.968;2023-03-11T10:39:09;6.20;99.90
9975;DHT22;5028;50.974;4.968;2023-03-11T10:41:50;6.20;99.90
9975;DHT22;5028;50.974;4.968;2023-03-11T10:44:24;6.20;99.90
9975;DHT22;5028;50.974;4.968;2023-03-11T10:47:02;6.50;99.90
9975;DHT22;5028;50.974;4.968;2023-03-11T10:49:30;6.10;99.90
9975;DHT22;5028;50.974;4.968;2023-03-11T10:52:06;6.20;99.90
9975;DHT22;5028;50.974;4.968;2023-03-11T10:54:36;6.30;99.90
9975;DHT22;5028;50.974;4.968;2023-03-11T10:57:24;6.30;99.90
9975;DHT22;5028;50.974;4.968;2023-03-11T10:59:54;6.50;99.90
9975;DHT22;5028;50.974;4.968;2023-03-11T11:02:30;6.60;99.90
9975;DHT22;5028;50.974;4.968;2023-03-11T11:05:25;6.50;99.90
9975;DHT22;5028;50.974;4.968;2023-03-11T11:08:12;6.60;99.90
9975;DHT22;5028;50.974;4.968;2023-03-11T11:10:49;6.80;99.90
9975;DHT22;5028;50.974;4.968;2023-03-11T11:13:28;6.90;99.90
9975;DHT22;5028;50.974;4.968;2023-03-11T11:15:59;7.00;99.90
9975;DHT22;5028;50.974;4.968;2023-03-11T11:18:36;6.90;99.90
9975;DHT22;5028;50.974;4.968;2023-03-11T11:21:14;6.80;99.90
9975;DHT22;5028;50.974;4.968;2023-03-11T11:23:50;6.70;99.90
9975;DHT22;5028;50.974;4.968;2023-03-11T11:26:30;6.90;99.90
9975;DHT22;5028;50.974;4.968;2023-03-11T11:29:13;7.20;99.90
9975;DHT22;5028;50.974;4.968;2023-03-11T11:31:45;7.40;99.90
9975;DHT22;5028;50.974;4.968;2023-03-11T11:34:27;7.70;99.90
9975;DHT22;5028;50.974;4.968;2023-03-11T11:36:58;8.00;99.90
9975;DHT22;5028;50.974;4.968;2023-03-11T11:39:43;8.50;99.90
9975;DHT22;5028;50.974;4.968;2023-03-11T11:42:19;8.60;99.90
9975;DHT22;5028;50.974;4.968;2023-03-11T11:45:01;8.60;99.90
9975;DHT22;5028;50.974;4.968;2023-03-11T11:47:34;8.90;99.90
9975;DHT22;5028;50.974;4.968;2023-03-11T11:50:13;9.20;99.90
9975;DHT22;5028;50.974;4.968;2023-03-11T11:52:48;9.10;99.90
9975;DHT22;5028;50.974;4.968;2023-03-11T11:55:25;9.10;99.90
9975;DHT22;5028;50.974;4.968;2023-03-11T11:57:55;9.30;99.90
9975;DHT22;5028;50.974;4.968;2023-03-11T12:00:39;9.40;99.90
9975;DHT22;5028;50.974;4.968;2023-03-11T12:03:36;9.40;99.90
9975;DHT22;5028;50.974;4.968;2023-03-11T12:06:28;9.40;99.90
9975;DHT22;5028;50.974;4.968;2023-03-11T12:09:05;8.70;99.90
9975;DHT22;5028;50.974;4.968;2023-03-11T12:11:50;8.50;99.90
9975;DHT22;5028;50.974;4.968;2023-03-11T12:14:27;8.80;99.90
9975;DHT22;5028;50.974;4.968;2023-03-11T12:17:07;9.10;99.90
9975;DHT22;5028;50.974;4.968;2023-03-11T12:19:41;9.10;99.90
9975;DHT22;5028;50.974;4.968;2023-03-11T12:22:46;9.10;99.90
9975;DHT22;5028;50.974;4.968;2023-03-11T12:25:29;9.10;99.90
9975;DHT22;5028;50.974;4.968;2023-03-11T12:28:15;8.60;99.90
9975;DHT22;5028;50.974;4.968;2023-03-11T12:30:48;8.20;99.90
9975;DHT22;5028;50.974;4.968;2023-03-11T12:33:30;8.10;99.90
9975;DHT22;5028;50.974;4.968;2023-03-11T12:36:01;8.50;99.90
9975;DHT22;5028;50.974;4.968;2023-03-11T12:38:38;8.70;99.90
9975;DHT22;5028;50.974;4.968;2023-03-11T12:41:26;8.90;99.90
9975;DHT22;5028;50.974;4.968;2023-03-11T12:44:22;8.80;99.90
9975;DHT22;5028;50.974;4.968;2023-03-11T12:47:16;9.10;99.90
9975;DHT22;5028;50.974;4.968;2023-03-11T12:49:54;9.30;99.90
9975;DHT22;5028;50.974;4.968;2023-03-11T12:52:29;9.30;99.90
9975;DHT22;5028;50.974;4.968;2023-03-11T12:55:31;9.20;99.90
9975;DHT22;5028;50.974;4.968;2023-03-11T13:01:28;9.50;99.90
9975;DHT22;5028;50.974;4.968;2023-03-11T13:04:29;9.50;99.90
9975;DHT22;5028;50.974;4.968;2023-03-11T13:07:46;9.80;99.90
9975;DHT22;5028;50.974;4.968;2023-03-11T13:10:35;9.90;99.90
9975;DHT22;5028;50.974;4.968;2023-03-11T13:13:37;9.60;99.90
9975;DHT22;5028;50.974;4.968;2023-03-11T13:16:35;9.40;99.90
9975;DHT22;5028;50.974;4.968;2023-03-11T13:19:36;9.40;99.90
9975;DHT22;5028;50.974;4.968;2023-03-11T13:22:39;9.60;99.90
9975;DHT22;5028;50.974;4.968;2023-03-11T13:25:36;9.70;99.90
9975;DHT22;5028;50.974;4.968;2023-03-11T13:28:26;9.60;99.90
9975;DHT22;5028;50.974;4.968;2023-03-11T13:31:10;9.40;99.90
9975;DHT22;5028;50.974;4.968;2023-03-11T13:33:50;9.40;99.90
9975;DHT22;5028;50.974;4.968;2023-03-11T13:36:39;9.80;99.90
9975;DHT22;5028;50.974;4.968;2023-03-11T13:42:28;10.20;99.90
9975;DHT22;5028;50.974;4.968;2023-03-11T13:45:07;10.10;99.90
9975;DHT22;5028;50.974;4.968;2023-03-11T13:47:44;9.40;99.90
9975;DHT22;5028;50.974;4.968;2023-03-11T13:50:25;9.40;99.90
9975;DHT22;5028;50.974;4.968;2023-03-11T13:52:56;9.70;99.90
9975;DHT22;5028;50.974;4.968;2023-03-11T13:55:34;9.90;99.90
9975;DHT22;5028;50.974;4.968;2023-03-11T13:58:13;9.50;99.90
9975;DHT22;5028;50.974;4.968;2023-03-11T14:00:51;9.30;99.90
9975;DHT22;5028;50.974;4.968;2023-03-11T14:03:21;9.00;99.90
9975;DHT22;5028;50.974;4.968;2023-03-11T14:06:00;9.00;99.90
9975;DHT22;5028;50.974;4.968;2023-03-11T14:08:36;9.20;99.90
9975;DHT22;5028;50.974;4.968;2023-03-11T14:11:16;9.50;99.90
9975;DHT22;5028;50.974;4.968;2023-03-11T14:13:48;9.60;99.90
9975;DHT22;5028;50.974;4.968;2023-03-11T14:16:27;9.60;99.90
9975;DHT22;5028;50.974;4.968;2023-03-11T14:19:03;9.50;99.90
9975;DHT22;5028;50.974;4.968;2023-03-11T14:21:41;9.30;99.90
9975;DHT22;5028;50.974;4.968;2023-03-11T14:24:15;9.40;99.90
9975;DHT22;5028;50.974;4.968;2023-03-11T14:26:51;9.40;99.90
9975;DHT22;5028;50.974;4.968;2023-03-11T14:29:28;9.20;99.90
9975;DHT22;5028;50.974;4.968;2023-03-11T14:32:16;9.00;99.90
9975;DHT22;5028;50.974;4.968;2023-03-11T14:34:51;8.90;99.90
9975;DHT22;5028;50.974;4.968;2023-03-11T14:37:30;8.50;99.90
9975;DHT22;5028;50.974;4.968;2023-03-11T14:40:00;8.30;99.90
9975;DHT22;5028;50.974;4.968;2023-03-11T14:42:36;8.20;99.90
9975;DHT22;5028;50.974;4.968;2023-03-11T14:45:12;8.10;99.90
9975;DHT22;5028;50.974;4.968;2023-03-11T14:47:51;8.10;99.90
9975;DHT22;5028;50.974;4.968;2023-03-11T14:50:22;8.20;99.90
9975;DHT22;5028;50.974;4.968;2023-03-11T14:52:59;8.20;99.90
9975;DHT22;5028;50.974;4.968;2023-03-11T14:55:32;8.20;99.90
9975;DHT22;5028;50.974;4.968;2023-03-11T14:58:12;8.20;99.90
9975;DHT22;5028;50.974;4.968;2023-03-11T15:00:48;8.10;99.90
9975;DHT22;5028;50.974;4.968;2023-03-11T15:03:32;7.90;99.90
9975;DHT22;5028;50.974;4.968;2023-03-11T15:06:15;7.90;99.90
9975;DHT22;5028;50.974;4.968;2023-03-11T15:08:54;7.90;99.90
9975;DHT22;5028;50.974;4.968;2023-03-11T15:11:26;8.00;99.90
9975;DHT22;5028;50.974;4.968;2023-03-11T15:14:13;7.90;99.90
9975;DHT22;5028;50.974;4.968;2023-03-11T15:16:45;7.70;99.90
9975;DHT22;5028;50.974;4.968;2023-03-11T15:19:28;7.60;99.90
9975;DHT22;5028;50.974;4.968;2023-03-11T15:21:59;7.50;99.90
9975;DHT22;5028;50.974;4.968;2023-03-11T15:24:35;7.60;99.90
9975;DHT22;5028;50.974;4.968;2023-03-11T15:27:05;7.70;99.90
9975;DHT22;5028;50.974;4.968;2023-03-11T15:29:49;7.60;99.90
9975;DHT22;5028;50.974;4.968;2023-03-11T15:32:32;7.60;99.90
9975;DHT22;5028;50.974;4.968;2023-03-11T15:35:15;7.60;99.90
9975;DHT22;5028;50.974;4.968;2023-03-11T15:37:45;7.70;99.90
9975;DHT22;5028;50.974;4.968;2023-03-11T15:40:22;7.70;99.90
9975;DHT22;5028;50.974;4.968;2023-03-11T15:43:19;7.70;99.90
9975;DHT22;5028;50.974;4.968;2023-03-11T15:45:56;7.80;99.90
9975;DHT22;5028;50.974;4.968;2023-03-11T15:48:28;7.80;99.90
9975;DHT22;5028;50.974;4.968;2023-03-11T15:51:04;7.80;99.90
9975;DHT22;5028;50.974;4.968;2023-03-11T15:53:32;7.80;99.90
9975;DHT22;5028;50.974;4.968;2023-03-11T15:56:12;7.80;99.90
9975;DHT22;5028;50.974;4.968;2023-03-11T15:58:41;7.80;99.90
9975;DHT22;5028;50.974;4.968;2023-03-11T16:01:16;7.80;99.90
9975;DHT22;5028;50.974;4.968;2023-03-11T16:03:51;7.70;99.90
9975;DHT22;5028;50.974;4.968;2023-03-11T16:06:33;7.70;99.90
9975;DHT22;5028;50.974;4.968;2023-03-11T16:09:02;7.70;99.90
9975;DHT22;5028;50.974;4.968;2023-03-11T16:11:39;7.70;99.90
9975;DHT22;5028;50.974;4.968;2023-03-11T16:14:14;7.60;99.90
9975;DHT22;5028;50.974;4.968;2023-03-11T16:16:50;7.60;99.90
9975;DHT22;5028;50.974;4.968;2023-03-11T16:19:20;7.50;99.90
9975;DHT22;5028;50.974;4.968;2023-03-11T16:21:56;7.40;99.90
9975;DHT22;5028;50.974;4.968;2023-03-11T16:24:25;7.40;99.90
9975;DHT22;5028;50.974;4.968;2023-03-11T16:26:59;7.40;99.90
9975;DHT22;5028;50.974;4.968;2023-03-11T16:29:28;7.30;99.90
9975;DHT22;5028;50.974;4.968;2023-03-11T16:32:04;7.20;99.90
9975;DHT22;5028;50.974;4.968;2023-03-11T16:34:34;7.20;99.90
9975;DHT22;5028;50.974;4.968;2023-03-11T16:37:14;7.10;99.90
9975;DHT22;5028;50.974;4.968;2023-03-11T16:39:43;7.10;99.90
9975;DHT22;5028;50.974;4.968;2023-03-11T16:42:21;7.00;99.90
9975;DHT22;5028;50.974;4.968;2023-03-11T16:44:50;7.00;99.90
9975;DHT22;5028;50.974;4.968;2023-03-11T16:47:25;7.00;99.90
9975;DHT22;5028;50.974;4.968;2023-03-11T16:49:55;6.90;99.90
9975;DHT22;5028;50.974;4.968;2023-03-11T16:52:30;6.90;99.90
9975;DHT22;5028;50.974;4.968;2023-03-11T16:54:59;6.90;99.90
9975;DHT22;5028;50.974;4.968;2023-03-11T16:57:33;6.80;99.90
9975;DHT22;5028;50.974;4.968;2023-03-11T17:00:05;6.80;99.90
9975;DHT22;5028;50.974;4.968;2023-03-11T17:02:41;6.80;99.90
9975;DHT22;5028;50.974;4.968;2023-03-11T17:05:12;6.70;99.90
9975;DHT22;5028;50.974;4.968;2023-03-11T17:07:54;6.70;99.90
9975;DHT22;5028;50.974;4.968;2023-03-11T17:10:27;6.70;99.90
9975;DHT22;5028;50.974;4.968;2023-03-11T17:13:03;6.60;99.90
9975;DHT22;5028;50.974;4.968;2023-03-11T17:15:32;6.60;99.90
9975;DHT22;5028;50.974;4.968;2023-03-11T17:18:08;6.60;99.90
9975;DHT22;5028;50.974;4.968;2023-03-11T17:20:40;6.50;99.90